sensor_id;sensor_type;location;lat;lon;timestamp;P1;durP1;ratioP1;P2;durP2;ratioP2
47225;SDS011;32965;64.142;-21.912;2022-09-23T00:01:06;8.43;;;2.75;;
47225;SDS011;32965;64.142;-21.912;2022-09-23T00:03:35;3.88;;;0.52;;
47225;SDS011;32965;64.142;-21.912;2022-09-23T00:06:04;5.85;;;1.00;;
47225;SDS011;32965;64.142;-21.912;2022-09-23T00:11:08;1.95;;;0.80;;
47225;SDS011;32965;64.142;-21.912;2022-09-23T00:13:36;3.80;;;0.50;;
47225;SDS011;32965;64.142;-21.912;2022-09-23T00:16:03;4.30;;;0.80;;
47225;SDS011;32965;64.142;-21.912;2022-09-23T00:18:31;2.15;;;0.43;;
47225;SDS011;32965;64.142;-21.912;2022-09-23T00:21:00;2.55;;;0.40;;
47225;SDS011;32965;64.142;-21.912;2022-09-23T00:23:30;4.22;;;0.35;;
47225;SDS011;32965;64.142;-21.912;2022-09-23T00:25:56;4.38;;;0.82;;
47225;SDS011;32965;64.142;-21.912;2022-09-23T00:28:23;2.72;;;1.00;;
47225;SDS011;32965;64.142;-21.912;2022-09-23T00:30:49;3.85;;;0.50;;
47225;SDS011;32965;64.142;-21.912;2022-09-23T00:33:17;1.40;;;0.45;;
47225;SDS011;32965;64.142;-21.912;2022-09-23T00:35:43;5.80;;;0.70;;
47225;SDS011;32965;64.142;-21.912;2022-09-23T00:38:14;6.68;;;1.45;;
47225;SDS011;32965;64.142;-21.912;2022-09-23T00:40:42;3.72;;;0.65;;
47225;SDS011;32965;64.142;-21.912;2022-09-23T00:43:10;1.85;;;0.52;;
47225;SDS011;32965;64.142;-21.912;2022-09-23T00:45:38;7.75;;;0.73;;
47225;SDS011;32965;64.142;-21.912;2022-09-23T00:48:07;5.38;;;0.80;;
47225;SDS011;32965;64.142;-21.912;2022-09-23T00:50:41;2.83;;;0.60;;
47225;SDS011;32965;64.142;-21.912;2022-09-23T00:55:45;2.28;;;0.30;;
47225;SDS011;32965;64.142;-21.912;2022-09-23T00:58:17;1.88;;;0.20;;
47225;SDS011;32965;64.142;-21.912;2022-09-23T01:00:47;2.60;;;0.50;;
47225;SDS011;32965;64.142;-21.912;2022-09-23T01:03:13;5.80;;;0.75;;
47225;SDS011;32965;64.142;-21.912;2022-09-23T01:05:41;1.60;;;0.40;;
47225;SDS011;32965;64.142;-21.912;2022-09-23T01:08:09;9.18;;;0.70;;
47225;SDS011;32965;64.142;-21.912;2022-09-23T01:10:50;3.78;;;0.80;;
47225;SDS011;32965;64.142;-21.912;2022-09-23T01:14:00;1.92;;;0.20;;
47225;SDS011;32965;64.142;-21.912;2022-09-23T01:22:53;0.88;;;0.52;;
47225;SDS011;32965;64.142;-21.912;2022-09-23T01:31:20;3.05;;;0.40;;
47225;SDS011;32965;64.142;-21.912;2022-09-23T01:36:33;3.33;;;0.43;;
47225;SDS011;32965;64.142;-21.912;2022-09-23T01:44:42;2.95;;;0.30;;
47225;SDS011;32965;64.142;-21.912;2022-09-23T01:47:13;3.05;;;0.50;;
47225;SDS011;32965;64.142;-21.912;2022-09-23T01:50:10;6.50;;;0.47;;
47225;SDS011;32965;64.142;-21.912;2022-09-23T01:55:37;1.05;;;0.50;;
47225;SDS011;32965;64.142;-21.912;2022-09-23T02:00:40;1.75;;;0.47;;
47225;SDS011;32965;64.142;-21.912;2022-09-23T02:03:16;1.75;;;0.25;;
47225;SDS011;32965;64.142;-21.912;2022-09-23T02:06:13;1.73;;;0.45;;
47225;SDS011;32965;64.142;-21.912;2022-09-23T02:11:20;4.32;;;0.50;;
47225;SDS011;32965;64.142;-21.912;2022-09-23T02:16:36;3.70;;;0.43;;
47225;SDS011;32965;64.142;-21.912;2022-09-23T02:19:10;2.45;;;0.30;;
47225;SDS011;32965;64.142;-21.912;2022-09-23T02:21:46;1.02;;;0.10;;
47225;SDS011;32965;64.142;-21.912;2022-09-23T02:24:18;2.10;;;0.20;;
47225;SDS011;32965;64.142;-21.912;2022-09-23T02:27:22;2.10;;;0.32;;
47225;SDS011;32965;64.142;-21.912;2022-09-23T02:40:57;3.25;;;0.35;;
47225;SDS011;32965;64.142;-21.912;2022-09-23T02:46:06;2.28;;;0.20;;
47225;SDS011;32965;64.142;-21.912;2022-09-23T02:53:38;1.15;;;0.10;;
47225;SDS011;32965;64.142;-21.912;2022-09-23T02:56:17;2.00;;;0.20;;
47225;SDS011;32965;64.142;-21.912;2022-09-23T02:58:44;3.28;;;0.20;;
47225;SDS011;32965;64.142;-21.912;2022-09-23T03:01:15;0.65;;;0.22;;
47225;SDS011;32965;64.142;-21.912;2022-09-23T03:09:31;0.57;;;0.10;;
47225;SDS011;32965;64.142;-21.912;2022-09-23T03:12:18;2.05;;;0.22;;
47225;SDS011;32965;64.142;-21.912;2022-09-23T03:14:56;1.80;;;0.30;;
47225;SDS011;32965;64.142;-21.912;2022-09-23T03:17:37;1.70;;;0.20;;
47225;SDS011;32965;64.142;-21.912;2022-09-23T03:20:14;0.90;;;0.10;;
47225;SDS011;32965;64.142;-21.912;2022-09-23T03:22:52;2.70;;;0.10;;
47225;SDS011;32965;64.142;-21.912;2022-09-23T03:25:25;3.00;;;0.30;;
47225;SDS011;32965;64.142;-21.912;2022-09-23T03:27:55;1.05;;;0.20;;
47225;SDS011;32965;64.142;-21.912;2022-09-23T03:30:24;3.50;;;0.50;;
47225;SDS011;32965;64.142;-21.912;2022-09-23T03:32:50;2.17;;;0.20;;
47225;SDS011;32965;64.142;-21.912;2022-09-23T03:35:21;1.27;;;0.30;;
47225;SDS011;32965;64.142;-21.912;2022-09-23T03:37:53;0.68;;;0.10;;
47225;SDS011;32965;64.142;-21.912;2022-09-23T03:40:26;1.95;;;0.17;;
47225;SDS011;32965;64.142;-21.912;2022-09-23T03:42:57;0.20;;;0.00;;
47225;SDS011;32965;64.142;-21.912;2022-09-23T03:45:26;0.17;;;0.00;;
47225;SDS011;32965;64.142;-21.912;2022-09-23T03:47:55;0.32;;;0.13;;
47225;SDS011;32965;64.142;-21.912;2022-09-23T03:50:21;3.40;;;0.10;;
47225;SDS011;32965;64.142;-21.912;2022-09-23T03:52:48;2.40;;;0.32;;
47225;SDS011;32965;64.142;-21.912;2022-09-23T03:55:16;0.45;;;0.05;;
47225;SDS011;32965;64.142;-21.912;2022-09-23T03:57:43;2.60;;;0.30;;
47225;SDS011;32965;64.142;-21.912;2022-09-23T04:00:09;0.50;;;0.10;;
47225;SDS011;32965;64.142;-21.912;2022-09-23T04:02:36;0.80;;;0.00;;
47225;SDS011;32965;64.142;-21.912;2022-09-23T04:05:03;0.43;;;0.03;;
47225;SDS011;32965;64.142;-21.912;2022-09-23T04:07:29;0.98;;;0.15;;
47225;SDS011;32965;64.142;-21.912;2022-09-23T04:09:58;0.73;;;0.10;;
47225;SDS011;32965;64.142;-21.912;2022-09-23T04:12:24;3.33;;;0.25;;
47225;SDS011;32965;64.142;-21.912;2022-09-23T04:14:50;0.28;;;0.10;;
47225;SDS011;32965;64.142;-21.912;2022-09-23T04:17:16;1.67;;;0.10;;
47225;SDS011;32965;64.142;-21.912;2022-09-23T04:19:42;0.57;;;0.20;;
47225;SDS011;32965;64.142;-21.912;2022-09-23T04:22:09;0.57;;;0.03;;
47225;SDS011;32965;64.142;-21.912;2022-09-23T04:24:35;1.23;;;0.30;;
47225;SDS011;32965;64.142;-21.912;2022-09-23T04:27:01;0.32;;;0.10;;
47225;SDS011;32965;64.142;-21.912;2022-09-23T04:29:27;0.17;;;0.00;;
47225;SDS011;32965;64.142;-21.912;2022-09-23T04:31:53;0.25;;;0.20;;
47225;SDS011;32965;64.142;-21.912;2022-09-23T04:34:19;0.75;;;0.22;;
47225;SDS011;32965;64.142;-21.912;2022-09-23T04:36:46;1.92;;;0.25;;
47225;SDS011;32965;64.142;-21.912;2022-09-23T04:39:13;3.47;;;0.20;;
47225;SDS011;32965;64.142;-21.912;2022-09-23T04:41:40;2.58;;;0.57;;
47225;SDS011;32965;64.142;-21.912;2022-09-23T04:44:06;7.38;;;0.40;;
47225;SDS011;32965;64.142;-21.912;2022-09-23T04:46:32;1.42;;;0.30;;
47225;SDS011;32965;64.142;-21.912;2022-09-23T04:48:58;0.82;;;0.20;;
47225;SDS011;32965;64.142;-21.912;2022-09-23T04:51:25;1.65;;;0.10;;
47225;SDS011;32965;64.142;-21.912;2022-09-23T04:58:56;0.45;;;0.10;;
47225;SDS011;32965;64.142;-21.912;2022-09-23T05:01:26;0.75;;;0.25;;
47225;SDS011;32965;64.142;-21.912;2022-09-23T05:03:57;1.40;;;0.10;;
47225;SDS011;32965;64.142;-21.912;2022-09-23T05:06:30;0.88;;;0.15;;
47225;SDS011;32965;64.142;-21.912;2022-09-23T05:08:58;1.85;;;0.32;;
47225;SDS011;32965;64.142;-21.912;2022-09-23T05:11:25;0.35;;;0.10;;
47225;SDS011;32965;64.142;-21.912;2022-09-23T05:13:53;0.45;;;0.10;;
47225;SDS011;32965;64.142;-21.912;2022-09-23T05:16:19;0.65;;;0.32;;
47225;SDS011;32965;64.142;-21.912;2022-09-23T05:18:47;0.28;;;0.10;;
47225;SDS011;32965;64.142;-21.912;2022-09-23T05:21:23;0.95;;;0.20;;
47225;SDS011;32965;64.142;-21.912;2022-09-23T05:23:52;1.13;;;0.25;;
47225;SDS011;32965;64.142;-21.912;2022-09-23T05:26:21;2.47;;;0.20;;
47225;SDS011;32965;64.142;-21.912;2022-09-23T05:28:55;1.00;;;0.20;;
47225;SDS011;32965;64.142;-21.912;2022-09-23T05:33:48;0.88;;;0.25;;
47225;SDS011;32965;64.142;-21.912;2022-09-23T05:36:20;3.85;;;0.30;;
47225;SDS011;32965;64.142;-21.912;2022-09-23T05:38:47;2.22;;;0.30;;
47225;SDS011;32965;64.142;-21.912;2022-09-23T05:43:40;0.55;;;0.20;;
47225;SDS011;32965;64.142;-21.912;2022-09-23T05:46:10;0.45;;;0.28;;
47225;SDS011;32965;64.142;-21.912;2022-09-23T05:48:38;0.95;;;0.10;;
47225;SDS011;32965;64.142;-21.912;2022-09-23T05:51:05;6.90;;;0.68;;
47225;SDS011;32965;64.142;-21.912;2022-09-23T05:53:33;0.00;;;0.00;;
47225;SDS011;32965;64.142;-21.912;2022-09-23T05:55:59;0.82;;;0.10;;
47225;SDS011;32965;64.142;-21.912;2022-09-23T05:58:25;0.77;;;0.30;;
47225;SDS011;32965;64.142;-21.912;2022-09-23T06:00:52;2.65;;;0.10;;
47225;SDS011;32965;64.142;-21.912;2022-09-23T06:03:21;0.40;;;0.05;;
47225;SDS011;32965;64.142;-21.912;2022-09-23T06:05:50;0.30;;;0.00;;
47225;SDS011;32965;64.142;-21.912;2022-09-23T06:08:17;0.40;;;0.25;;
47225;SDS011;32965;64.142;-21.912;2022-09-23T06:10:43;0.20;;;0.10;;
47225;SDS011;32965;64.142;-21.912;2022-09-23T06:13:10;0.38;;;0.00;;
47225;SDS011;32965;64.142;-21.912;2022-09-23T06:15:37;2.13;;;0.10;;
47225;SDS011;32965;64.142;-21.912;2022-09-23T06:18:04;0.88;;;0.00;;
47225;SDS011;32965;64.142;-21.912;2022-09-23T06:20:31;0.40;;;0.10;;
47225;SDS011;32965;64.142;-21.912;2022-09-23T06:23:02;0.43;;;0.10;;
47225;SDS011;32965;64.142;-21.912;2022-09-23T06:25:30;1.05;;;0.10;;
47225;SDS011;32965;64.142;-21.912;2022-09-23T06:27:57;0.50;;;0.20;;
47225;SDS011;32965;64.142;-21.912;2022-09-23T06:30:23;1.45;;;0.10;;
47225;SDS011;32965;64.142;-21.912;2022-09-23T06:32:54;0.13;;;0.00;;
47225;SDS011;32965;64.142;-21.912;2022-09-23T06:35:22;0.32;;;0.10;;
47225;SDS011;32965;64.142;-21.912;2022-09-23T06:37:49;2.35;;;0.20;;
47225;SDS011;32965;64.142;-21.912;2022-09-23T06:42:41;2.15;;;0.30;;
47225;SDS011;32965;64.142;-21.912;2022-09-23T06:45:07;0.88;;;0.20;;
47225;SDS011;32965;64.142;-21.912;2022-09-23T06:47:40;0.35;;;0.17;;
47225;SDS011;32965;64.142;-21.912;2022-09-23T06:50:07;1.67;;;0.20;;
47225;SDS011;32965;64.142;-21.912;2022-09-23T06:52:33;0.95;;;0.30;;
47225;SDS011;32965;64.142;-21.912;2022-09-23T06:54:59;1.80;;;0.47;;
47225;SDS011;32965;64.142;-21.912;2022-09-23T06:57:29;1.90;;;0.40;;
47225;SDS011;32965;64.142;-21.912;2022-09-23T07:00:01;1.15;;;0.30;;
47225;SDS011;32965;64.142;-21.912;2022-09-23T07:02:27;1.40;;;0.20;;
47225;SDS011;32965;64.142;-21.912;2022-09-23T07:04:53;0.30;;;0.22;;
47225;SDS011;32965;64.142;-21.912;2022-09-23T07:07:21;3.08;;;0.70;;
47225;SDS011;32965;64.142;-21.912;2022-09-23T07:09:47;1.05;;;0.50;;
47225;SDS011;32965;64.142;-21.912;2022-09-23T07:12:15;1.20;;;0.40;;
47225;SDS011;32965;64.142;-21.912;2022-09-23T07:14:47;1.52;;;0.32;;
47225;SDS011;32965;64.142;-21.912;2022-09-23T07:17:12;1.23;;;0.38;;
47225;SDS011;32965;64.142;-21.912;2022-09-23T07:19:38;2.22;;;0.68;;
47225;SDS011;32965;64.142;-21.912;2022-09-23T07:22:04;2.60;;;0.57;;
47225;SDS011;32965;64.142;-21.912;2022-09-23T07:24:30;0.63;;;0.40;;
47225;SDS011;32965;64.142;-21.912;2022-09-23T07:26:59;1.15;;;0.25;;
47225;SDS011;32965;64.142;-21.912;2022-09-23T07:32:01;1.73;;;0.30;;
47225;SDS011;32965;64.142;-21.912;2022-09-23T07:34:27;2.22;;;0.52;;
47225;SDS011;32965;64.142;-21.912;2022-09-23T07:36:52;3.17;;;0.50;;
47225;SDS011;32965;64.142;-21.912;2022-09-23T07:39:18;2.42;;;0.50;;
47225;SDS011;32965;64.142;-21.912;2022-09-23T07:41:45;2.05;;;0.82;;
47225;SDS011;32965;64.142;-21.912;2022-09-23T07:44:11;1.13;;;0.60;;
47225;SDS011;32965;64.142;-21.912;2022-09-23T07:46:38;1.17;;;0.60;;
47225;SDS011;32965;64.142;-21.912;2022-09-23T07:49:04;4.90;;;1.45;;
47225;SDS011;32965;64.142;-21.912;2022-09-23T07:51:31;1.35;;;0.70;;
47225;SDS011;32965;64.142;-21.912;2022-09-23T07:54:01;7.95;;;0.60;;
47225;SDS011;32965;64.142;-21.912;2022-09-23T07:56:29;1.70;;;0.50;;
47225;SDS011;32965;64.142;-21.912;2022-09-23T07:58:55;3.35;;;0.60;;
47225;SDS011;32965;64.142;-21.912;2022-09-23T08:01:29;3.45;;;0.40;;
47225;SDS011;32965;64.142;-21.912;2022-09-23T08:04:12;1.50;;;0.20;;
47225;SDS011;32965;64.142;-21.912;2022-09-23T08:06:44;0.70;;;0.22;;
47225;SDS011;32965;64.142;-21.912;2022-09-23T08:09:13;1.45;;;0.40;;
47225;SDS011;32965;64.142;-21.912;2022-09-23T08:11:40;3.25;;;0.40;;
47225;SDS011;32965;64.142;-21.912;2022-09-23T08:14:10;3.55;;;0.50;;
47225;SDS011;32965;64.142;-21.912;2022-09-23T08:16:38;1.73;;;0.50;;
47225;SDS011;32965;64.142;-21.912;2022-09-23T08:19:04;1.42;;;0.88;;
47225;SDS011;32965;64.142;-21.912;2022-09-23T08:21:31;4.05;;;0.50;;
47225;SDS011;32965;64.142;-21.912;2022-09-23T08:23:57;3.13;;;0.75;;
47225;SDS011;32965;64.142;-21.912;2022-09-23T08:26:23;3.13;;;0.55;;
47225;SDS011;32965;64.142;-21.912;2022-09-23T08:28:50;1.40;;;0.60;;
47225;SDS011;32965;64.142;-21.912;2022-09-23T08:31:18;6.20;;;0.87;;
47225;SDS011;32965;64.142;-21.912;2022-09-23T08:36:12;1.33;;;0.50;;
47225;SDS011;32965;64.142;-21.912;2022-09-23T08:38:38;6.68;;;1.00;;
47225;SDS011;32965;64.142;-21.912;2022-09-23T08:41:30;4.22;;;0.80;;
47225;SDS011;32965;64.142;-21.912;2022-09-23T08:44:07;6.03;;;0.90;;
47225;SDS011;32965;64.142;-21.912;2022-09-23T08:46:50;5.63;;;1.27;;
47225;SDS011;32965;64.142;-21.912;2022-09-23T08:49:25;5.00;;;1.23;;
47225;SDS011;32965;64.142;-21.912;2022-09-23T08:51:55;6.50;;;1.60;;
47225;SDS011;32965;64.142;-21.912;2022-09-23T08:54:24;3.38;;;0.70;;
47225;SDS011;32965;64.142;-21.912;2022-09-23T08:56:55;6.57;;;0.90;;
47225;SDS011;32965;64.142;-21.912;2022-09-23T08:59:44;5.88;;;0.70;;
47225;SDS011;32965;64.142;-21.912;2022-09-23T09:02:19;5.40;;;1.15;;
47225;SDS011;32965;64.142;-21.912;2022-09-23T09:04:48;6.05;;;0.98;;
47225;SDS011;32965;64.142;-21.912;2022-09-23T09:07:19;6.80;;;1.13;;
47225;SDS011;32965;64.142;-21.912;2022-09-23T09:17:39;5.35;;;0.85;;
47225;SDS011;32965;64.142;-21.912;2022-09-23T09:29:23;3.60;;;0.98;;
47225;SDS011;32965;64.142;-21.912;2022-09-23T09:31:56;8.90;;;1.17;;
47225;SDS011;32965;64.142;-21.912;2022-09-23T09:34:27;4.82;;;0.60;;
47225;SDS011;32965;64.142;-21.912;2022-09-23T09:39:55;6.30;;;1.35;;
47225;SDS011;32965;64.142;-21.912;2022-09-23T09:42:22;3.88;;;0.82;;
47225;SDS011;32965;64.142;-21.912;2022-09-23T09:45:14;3.58;;;1.17;;
47225;SDS011;32965;64.142;-21.912;2022-09-23T09:53:20;6.65;;;1.20;;
47225;SDS011;32965;64.142;-21.912;2022-09-23T09:58:59;3.20;;;1.23;;
47225;SDS011;32965;64.142;-21.912;2022-09-23T10:01:32;3.97;;;0.98;;
47225;SDS011;32965;64.142;-21.912;2022-09-23T10:04:03;5.20;;;1.67;;
47225;SDS011;32965;64.142;-21.912;2022-09-23T10:07:05;6.35;;;1.20;;
47225;SDS011;32965;64.142;-21.912;2022-09-23T10:09:46;8.85;;;1.13;;
47225;SDS011;32965;64.142;-21.912;2022-09-23T10:12:16;8.00;;;1.30;;
47225;SDS011;32965;64.142;-21.912;2022-09-23T10:14:46;10.27;;;1.33;;
47225;SDS011;32965;64.142;-21.912;2022-09-23T10:17:21;3.88;;;1.00;;
47225;SDS011;32965;64.142;-21.912;2022-09-23T10:19:53;7.30;;;1.15;;
47225;SDS011;32965;64.142;-21.912;2022-09-23T10:22:25;6.40;;;1.13;;
47225;SDS011;32965;64.142;-21.912;2022-09-23T10:25:22;6.32;;;1.33;;
47225;SDS011;32965;64.142;-21.912;2022-09-23T10:27:52;9.25;;;1.50;;
47225;SDS011;32965;64.142;-21.912;2022-09-23T10:30:19;6.90;;;1.60;;
47225;SDS011;32965;64.142;-21.912;2022-09-23T10:32:45;8.23;;;1.40;;
47225;SDS011;32965;64.142;-21.912;2022-09-23T10:35:13;9.52;;;1.23;;
47225;SDS011;32965;64.142;-21.912;2022-09-23T10:40:30;6.53;;;1.70;;
47225;SDS011;32965;64.142;-21.912;2022-09-23T10:51:47;7.32;;;1.17;;
47225;SDS011;32965;64.142;-21.912;2022-09-23T11:02:47;7.32;;;1.45;;
47225;SDS011;32965;64.142;-21.912;2022-09-23T11:31:41;9.20;;;1.65;;
47225;SDS011;32965;64.142;-21.912;2022-09-23T11:37:12;9.25;;;1.98;;
47225;SDS011;32965;64.142;-21.912;2022-09-23T11:39:44;8.75;;;2.20;;
47225;SDS011;32965;64.142;-21.912;2022-09-23T11:42:16;11.02;;;2.15;;
47225;SDS011;32965;64.142;-21.912;2022-09-23T11:45:01;8.65;;;1.60;;
47225;SDS011;32965;64.142;-21.912;2022-09-23T11:47:43;15.25;;;2.33;;
47225;SDS011;32965;64.142;-21.912;2022-09-23T11:52:50;13.65;;;2.25;;
47225;SDS011;32965;64.142;-21.912;2022-09-23T11:55:38;7.90;;;2.28;;
47225;SDS011;32965;64.142;-21.912;2022-09-23T11:58:14;11.23;;;2.92;;
47225;SDS011;32965;64.142;-21.912;2022-09-23T12:00:49;13.55;;;2.47;;
47225;SDS011;32965;64.142;-21.912;2022-09-23T12:03:43;13.38;;;3.30;;
47225;SDS011;32965;64.142;-21.912;2022-09-23T12:06:23;17.58;;;2.83;;
47225;SDS011;32965;64.142;-21.912;2022-09-23T12:09:01;17.17;;;3.35;;
47225;SDS011;32965;64.142;-21.912;2022-09-23T12:11:40;13.85;;;3.78;;
47225;SDS011;32965;64.142;-21.912;2022-09-23T12:14:20;17.35;;;4.13;;
47225;SDS011;32965;64.142;-21.912;2022-09-23T12:17:26;9.73;;;3.45;;
47225;SDS011;32965;64.142;-21.912;2022-09-23T12:20:15;17.67;;;3.75;;
47225;SDS011;32965;64.142;-21.912;2022-09-23T12:28:34;13.75;;;3.58;;
47225;SDS011;32965;64.142;-21.912;2022-09-23T12:31:12;15.50;;;3.75;;
47225;SDS011;32965;64.142;-21.912;2022-09-23T12:33:48;12.75;;;4.15;;
47225;SDS011;32965;64.142;-21.912;2022-09-23T12:36:16;13.95;;;3.50;;
47225;SDS011;32965;64.142;-21.912;2022-09-23T12:41:41;15.15;;;4.50;;
47225;SDS011;32965;64.142;-21.912;2022-09-23T12:46:37;19.58;;;3.47;;
47225;SDS011;32965;64.142;-21.912;2022-09-23T12:49:04;20.75;;;4.47;;
47225;SDS011;32965;64.142;-21.912;2022-09-23T12:52:10;18.92;;;3.78;;
47225;SDS011;32965;64.142;-21.912;2022-09-23T12:54:40;14.93;;;3.42;;
47225;SDS011;32965;64.142;-21.912;2022-09-23T12:57:12;14.02;;;3.75;;
47225;SDS011;32965;64.142;-21.912;2022-09-23T12:59:53;15.07;;;3.33;;
47225;SDS011;32965;64.142;-21.912;2022-09-23T13:02:27;17.33;;;3.58;;
47225;SDS011;32965;64.142;-21.912;2022-09-23T13:05:07;14.23;;;3.35;;
47225;SDS011;32965;64.142;-21.912;2022-09-23T13:07:59;16.00;;;3.65;;
47225;SDS011;32965;64.142;-21.912;2022-09-23T13:10:45;14.75;;;3.47;;
47225;SDS011;32965;64.142;-21.912;2022-09-23T13:16:12;16.40;;;3.67;;
47225;SDS011;32965;64.142;-21.912;2022-09-23T13:29:38;17.77;;;4.43;;
47225;SDS011;32965;64.142;-21.912;2022-09-23T13:32:27;17.83;;;4.47;;
47225;SDS011;32965;64.142;-21.912;2022-09-23T13:35:02;14.15;;;4.25;;
47225;SDS011;32965;64.142;-21.912;2022-09-23T13:40:08;16.92;;;3.47;;
47225;SDS011;32965;64.142;-21.912;2022-09-23T13:43:04;18.23;;;4.15;;
47225;SDS011;32965;64.142;-21.912;2022-09-23T13:45:35;19.45;;;3.85;;
47225;SDS011;32965;64.142;-21.912;2022-09-23T13:48:07;14.85;;;4.38;;
47225;SDS011;32965;64.142;-21.912;2022-09-23T13:50:37;17.27;;;4.30;;
47225;SDS011;32965;64.142;-21.912;2022-09-23T13:53:09;20.05;;;4.40;;
47225;SDS011;32965;64.142;-21.912;2022-09-23T13:58:19;22.17;;;4.75;;
47225;SDS011;32965;64.142;-21.912;2022-09-23T14:00:48;17.75;;;4.95;;
47225;SDS011;32965;64.142;-21.912;2022-09-23T14:05:58;17.13;;;4.35;;
47225;SDS011;32965;64.142;-21.912;2022-09-23T14:08:25;21.90;;;4.53;;
47225;SDS011;32965;64.142;-21.912;2022-09-23T14:10:53;17.38;;;3.50;;
47225;SDS011;32965;64.142;-21.912;2022-09-23T14:13:24;13.60;;;4.47;;
47225;SDS011;32965;64.142;-21.912;2022-09-23T14:15:53;15.73;;;3.65;;
47225;SDS011;32965;64.142;-21.912;2022-09-23T14:18:27;19.50;;;4.03;;
47225;SDS011;32965;64.142;-21.912;2022-09-23T14:20:54;17.20;;;4.38;;
47225;SDS011;32965;64.142;-21.912;2022-09-23T14:23:20;17.50;;;4.65;;
47225;SDS011;32965;64.142;-21.912;2022-09-23T14:25:46;16.17;;;4.80;;
47225;SDS011;32965;64.142;-21.912;2022-09-23T14:28:15;20.23;;;4.05;;
47225;SDS011;32965;64.142;-21.912;2022-09-23T14:30:44;19.98;;;4.75;;
47225;SDS011;32965;64.142;-21.912;2022-09-23T14:33:21;19.77;;;4.43;;
47225;SDS011;32965;64.142;-21.912;2022-09-23T14:36:04;17.25;;;4.57;;
47225;SDS011;32965;64.142;-21.912;2022-09-23T14:38:59;16.92;;;4.20;;
47225;SDS011;32965;64.142;-21.912;2022-09-23T14:41:28;22.92;;;5.15;;
47225;SDS011;32965;64.142;-21.912;2022-09-23T14:44:00;22.13;;;4.68;;
47225;SDS011;32965;64.142;-21.912;2022-09-23T14:46:28;17.52;;;4.20;;
47225;SDS011;32965;64.142;-21.912;2022-09-23T14:51:55;16.30;;;3.92;;
47225;SDS011;32965;64.142;-21.912;2022-09-23T14:54:29;17.55;;;4.28;;
47225;SDS011;32965;64.142;-21.912;2022-09-23T14:56:59;17.52;;;4.70;;
47225;SDS011;32965;64.142;-21.912;2022-09-23T15:02:42;20.23;;;4.88;;
47225;SDS011;32965;64.142;-21.912;2022-09-23T15:05:20;19.38;;;4.43;;
47225;SDS011;32965;64.142;-21.912;2022-09-23T15:07:48;22.48;;;4.68;;
47225;SDS011;32965;64.142;-21.912;2022-09-23T15:10:25;20.33;;;4.78;;
47225;SDS011;32965;64.142;-21.912;2022-09-23T15:15:51;21.77;;;4.07;;
47225;SDS011;32965;64.142;-21.912;2022-09-23T15:18:34;16.63;;;4.95;;
47225;SDS011;32965;64.142;-21.912;2022-09-23T15:21:06;17.58;;;4.07;;
47225;SDS011;32965;64.142;-21.912;2022-09-23T15:26:22;16.90;;;3.88;;
47225;SDS011;32965;64.142;-21.912;2022-09-23T15:28:49;20.98;;;4.80;;
47225;SDS011;32965;64.142;-21.912;2022-09-23T15:31:18;16.98;;;4.57;;
47225;SDS011;32965;64.142;-21.912;2022-09-23T15:33:46;19.38;;;3.88;;
47225;SDS011;32965;64.142;-21.912;2022-09-23T15:36:19;15.18;;;4.38;;
47225;SDS011;32965;64.142;-21.912;2022-09-23T15:38:47;18.95;;;4.68;;
47225;SDS011;32965;64.142;-21.912;2022-09-23T15:41:14;23.25;;;4.72;;
47225;SDS011;32965;64.142;-21.912;2022-09-23T15:43:42;14.85;;;3.75;;
47225;SDS011;32965;64.142;-21.912;2022-09-23T15:46:21;18.80;;;4.03;;
47225;SDS011;32965;64.142;-21.912;2022-09-23T15:49:00;18.23;;;3.83;;
47225;SDS011;32965;64.142;-21.912;2022-09-23T15:51:31;21.90;;;4.75;;
47225;SDS011;32965;64.142;-21.912;2022-09-23T15:53:59;15.52;;;4.55;;
47225;SDS011;32965;64.142;-21.912;2022-09-23T15:56:25;15.77;;;4.53;;
47225;SDS011;32965;64.142;-21.912;2022-09-23T15:58:51;20.13;;;4.53;;
47225;SDS011;32965;64.142;-21.912;2022-09-23T16:01:23;17.88;;;4.15;;
47225;SDS011;32965;64.142;-21.912;2022-09-23T16:03:54;19.65;;;5.45;;
47225;SDS011;32965;64.142;-21.912;2022-09-23T16:06:21;17.23;;;4.53;;
47225;SDS011;32965;64.142;-21.912;2022-09-23T16:08:49;17.20;;;4.70;;
47225;SDS011;32965;64.142;-21.912;2022-09-23T16:11:22;25.58;;;4.90;;
47225;SDS011;32965;64.142;-21.912;2022-09-23T16:13:50;23.45;;;4.15;;
47225;SDS011;32965;64.142;-21.912;2022-09-23T16:16:18;16.65;;;4.40;;
47225;SDS011;32965;64.142;-21.912;2022-09-23T16:18:45;17.55;;;4.35;;
47225;SDS011;32965;64.142;-21.912;2022-09-23T16:21:12;18.05;;;4.50;;
47225;SDS011;32965;64.142;-21.912;2022-09-23T16:23:40;19.98;;;4.53;;
47225;SDS011;32965;64.142;-21.912;2022-09-23T16:28:38;19.17;;;4.80;;
47225;SDS011;32965;64.142;-21.912;2022-09-23T16:31:03;12.98;;;3.88;;
47225;SDS011;32965;64.142;-21.912;2022-09-23T16:33:29;20.13;;;4.25;;
47225;SDS011;32965;64.142;-21.912;2022-09-23T16:35:55;17.17;;;5.05;;
47225;SDS011;32965;64.142;-21.912;2022-09-23T16:38:22;18.02;;;4.03;;
47225;SDS011;32965;64.142;-21.912;2022-09-23T16:40:48;21.48;;;4.05;;
47225;SDS011;32965;64.142;-21.912;2022-09-23T16:43:13;19.67;;;4.35;;
47225;SDS011;32965;64.142;-21.912;2022-09-23T16:45:39;13.60;;;4.15;;
47225;SDS011;32965;64.142;-21.912;2022-09-23T16:48:05;14.23;;;3.67;;
47225;SDS011;32965;64.142;-21.912;2022-09-23T16:50:32;17.95;;;4.75;;
47225;SDS011;32965;64.142;-21.912;2022-09-23T16:52:58;18.55;;;4.18;;
47225;SDS011;32965;64.142;-21.912;2022-09-23T16:55:24;17.40;;;4.47;;
47225;SDS011;32965;64.142;-21.912;2022-09-23T16:57:51;18.42;;;4.13;;
47225;SDS011;32965;64.142;-21.912;2022-09-23T17:00:18;20.08;;;4.95;;
47225;SDS011;32965;64.142;-21.912;2022-09-23T17:03:03;13.68;;;4.03;;
47225;SDS011;32965;64.142;-21.912;2022-09-23T17:08:18;22.58;;;5.40;;
47225;SDS011;32965;64.142;-21.912;2022-09-23T17:10:44;19.73;;;4.90;;
47225;SDS011;32965;64.142;-21.912;2022-09-23T17:13:19;12.75;;;4.35;;
47225;SDS011;32965;64.142;-21.912;2022-09-23T17:15:46;18.73;;;4.22;;
47225;SDS011;32965;64.142;-21.912;2022-09-23T17:18:13;13.18;;;4.13;;
47225;SDS011;32965;64.142;-21.912;2022-09-23T17:20:39;19.35;;;4.05;;
47225;SDS011;32965;64.142;-21.912;2022-09-23T17:23:05;19.05;;;4.35;;
47225;SDS011;32965;64.142;-21.912;2022-09-23T17:25:32;17.20;;;4.45;;
47225;SDS011;32965;64.142;-21.912;2022-09-23T17:27:58;21.60;;;5.80;;
47225;SDS011;32965;64.142;-21.912;2022-09-23T17:30:29;16.15;;;3.83;;
47225;SDS011;32965;64.142;-21.912;2022-09-23T17:32:56;21.23;;;4.15;;
47225;SDS011;32965;64.142;-21.912;2022-09-23T17:35:22;14.52;;;4.45;;
47225;SDS011;32965;64.142;-21.912;2022-09-23T17:38:00;15.48;;;4.53;;
47225;SDS011;32965;64.142;-21.912;2022-09-23T17:40:26;17.65;;;4.78;;
47225;SDS011;32965;64.142;-21.912;2022-09-23T17:42:59;19.90;;;5.05;;
47225;SDS011;32965;64.142;-21.912;2022-09-23T17:47:53;17.50;;;4.05;;
47225;SDS011;32965;64.142;-21.912;2022-09-23T17:52:47;18.63;;;5.07;;
47225;SDS011;32965;64.142;-21.912;2022-09-23T17:55:16;25.27;;;5.88;;
47225;SDS011;32965;64.142;-21.912;2022-09-23T17:57:43;22.33;;;4.72;;
47225;SDS011;32965;64.142;-21.912;2022-09-23T18:00:09;15.30;;;4.45;;
47225;SDS011;32965;64.142;-21.912;2022-09-23T18:02:35;18.98;;;4.35;;
47225;SDS011;32965;64.142;-21.912;2022-09-23T18:05:04;22.45;;;5.18;;
47225;SDS011;32965;64.142;-21.912;2022-09-23T18:09:55;18.55;;;4.43;;
47225;SDS011;32965;64.142;-21.912;2022-09-23T18:12:21;18.58;;;5.07;;
47225;SDS011;32965;64.142;-21.912;2022-09-23T18:14:47;20.55;;;5.03;;